Terminal Aerodrome Forecast
Issued by NWS Northern Indiana

Home | Current Version | Previous Version | Text Only | Print | Product List | Glossary Off
Versions: 1 2 3 4 5 6 7 8 9 10 11 12 13 14 15 16

000
FTUS43 KIWX 280538
TAFFWA
TAF
KFWA 280538Z 2806/2906 30008KT P6SM SCT080
     FM281400 32010KT P6SM FEW045 BKN250
     FM290200 14005KT P6SM OVC080=

USA.gov is the U.S. government's official web portal to all federal, state and local government web resources and services.